ADDS METAR Data INFO
IDs: Format: Raw Decoded Include TAF

Data at: 1532 UTC 25 Feb 2018

KDCY 251515Z AUTO 25011KT 10SM CLR 05/00 A3007 RMK AO2 T00521001
KDCY 251455Z AUTO 26007KT 10SM CLR 05/00 A3006 RMK AO2 T00521005
KDCY 251435Z AUTO 28007KT 10SM CLR 04/M01 A3006 RMK AO2 T00411015
KDCY 251415Z AUTO 28007KT 10SM CLR 04/M01 A3006 RMK AO2 T00411014
KDCY 251355Z AUTO 27009KT 10SM CLR 04/M01 A3006 RMK AO2 T00401012
KDCY 251335Z AUTO 27010G15KT 10SM CLR 04/M01 A3005 RMK AO2 T00391008
KDCY 251315Z AUTO 26008KT 10SM CLR 04/M01 A3004 RMK AO2 T00401010
KDCY 251255Z AUTO 26009KT 10SM CLR 04/M01 A3002 RMK AO2 T00381007
KDCY 251235Z AUTO 26008KT 10SM CLR 04/00 A3001 RMK AO2 T00400000
KDCY 251215Z AUTO 28009KT 10SM CLR 04/00 A3001 RMK AO2 T00411004
KDCY 251155Z AUTO 26011G15KT 10SM SCT020 04/00 A2999 RMK AO2 70194 T00440002 10155 20044
KDCY 251135Z AUTO 28009KT 10SM SCT020 05/01 A2997 RMK AO2 T00480005
KDCY 251115Z AUTO 28013G18KT 10SM CLR 05/00 A2996 RMK AO2 T00510002
KDCY 251055Z AUTO 27014G19KT 10SM CLR 06/01 A2995 RMK AO2 T00550005
KDCY 251035Z AUTO 28014G19KT 10SM CLR 06/01 A2995 RMK AO2 T00580007
KDCY 251015Z AUTO 27012G20KT 10SM SCT029 06/01 A2994 RMK AO2 T00620008
KDCY 250955Z AUTO 28015G21KT 10SM OVC029 07/01 A2992 RMK AO2 T00670010
KDCY 250935Z AUTO 28013G22KT 10SM SCT029 07/01 A2990 RMK AO2 T00710014
KDCY 250915Z AUTO 28014G26KT 10SM CLR 08/01 A2988 RMK AO2 T00750014
KDCY 250855Z AUTO 28019G26KT 10SM CLR 08/02 A2987 RMK AO2 T00780016
KDCY 250835Z AUTO 28021G29KT 10SM SCT026 SCT039 BKN046 08/02 A2985 RMK AO2 T00830022
KDCY 250815Z AUTO 28016G29KT 10SM SCT018 BKN035 OVC041 09/04 A2984 RMK AO2 T00900035
KDCY 250755Z AUTO 28020G31KT 10SM BKN015 OVC025 10/05 A2982 RMK AO2 T00980052
KDCY 250735Z AUTO 29025G29KT 10SM SCT019 BKN024 OVC032 12/08 A2979 RMK AO2 T01190078
KDCY 250715Z AUTO 29026G34KT 10SM SCT024 BKN040 OVC049 14/08 A2975 RMK AO2 T01380084
KDCY 250655Z AUTO 27018G24KT 10SM SCT023 BKN041 OVC049 14/10 A2974 RMK AO2 T01430097
KDCY 250635Z AUTO 26018G27KT 10SM SCT021 BKN025 OVC042 15/12 A2971 RMK AO2 T01510119
KDCY 250615Z AUTO 25016G22KT 10SM BKN019 BKN028 OVC036 16/13 A2971 RMK AO2 T01550134
KDCY 250555Z AUTO 24015G23KT 10SM BKN010 BKN019 OVC028 15/14 A2970 RMK AO2 60139 T01540143 10154 20122 401540073
KDCY 250535Z AUTO 23015G20KT 5SM -DZ OVC010 15/14 A2968 RMK AO2 T01510141
KDCY 250515Z AUTO 21013KT 7SM OVC010 15/14 A2966 RMK AO2 T01500140
KDCY 250455Z AUTO 21010G15KT 7SM -DZ SCT008 BKN014 OVC027 15/14 A2966 RMK AO2 P0001 T01450135
KDCY 250435Z AUTO 19012G17KT 10SM -RA SCT007 OVC028 14/13 A2965 RMK AO2 LTG DSNT E T01410131
KDCY 250415Z AUTO 18011KT 10SM BKN007 BKN011 OVC045 14/13 A2966 RMK AO2 LTG DSNT E T01390129
KDCY 250355Z AUTO 16011KT 10SM SCT009 OVC060 13/12 A2965 RMK AO2 P0005 T01340124
KDCY 250335Z AUTO 17014KT 10SM SCT011 BKN070 BKN085 14/13 A2964 RMK AO2 LTG DSNT SE P0005 T01360126
KDCY 250315Z AUTO 13015KT 7SM -RA SCT013 SCT070 OVC095 13/12 A2963 RMK AO2 LTG DSNT S P0005 T01330123
KDCY 250255Z AUTO 15013KT 7SM RA SCT070 OVC095 13/12 A2970 RMK AO2 LTG DSNT SE P0021 60133 T01300120
KDCY 250235Z AUTO 16008KT 7SM RA SCT028 BKN070 OVC095 13/12 A2971 RMK AO2 LTG DSNT E P0014 T01260116
KDCY 250215Z AUTO 15009KT 5SM VCTSRA SCT025 BKN070 OVC095 13/12 A2972 RMK AO2 LTG DSNT SE AND S P0007 T01260116
KDCY 250155Z AUTO 14012KT 5SM RA SCT025 BKN055 OVC070 13/12 A2972 RMK AO2 LTG DSNT E THRU S P0066 T01250115
KDCY 250135Z AUTO 14008KT 2 1/2SM +RA SCT024 BKN032 OVC050 A2974 RMK AO2 LTG DSNT SW P0055
KDCY 250115Z AUTO 13010KT 1 1/2SM +RA BKN005 BKN021 OVC026 A2975 RMK AO2 LTG DSNT SW P0031
KDCY 250055Z AUTO 00000KT 1 3/4SM +RA OVC005 12/11 A2977 RMK AO2 VIS 3/4V3 LTG DSNT SW P0043 T01240114
KDCY 250035Z AUTO 12010KT 3SM +TSRA BKN005 BKN029 OVC035 12/11 A2973 RMK AO2 P0022 T01230113
KDCY 250015Z AUTO 11011KT 4SM RA OVC005 12/11 A2974 RMK AO2 LTG DSNT SW AND W P0008 T01240114
KDCY 242355Z AUTO 13008KT 4SM RA BKN005 OVC009 12/11 A2976 RMK AO2 LTG DSNT SW AND W P0019 60027 T01220112 10129 20117
KDCY 242335Z AUTO 14009KT 5SM RA BKN005 BKN015 OVC060 12/11 A2979 RMK AO2 LTG DSNT SE P0010 T01220112
KDCY 242315Z AUTO 14007KT 5SM RA OVC007 12/11 A2981 RMK AO2 P0003 T01220112
KDCY 242255Z AUTO 14007KT 7SM RA OVC007 12/11 A2982 RMK AO2 P0008 T01220112
KDCY 242235Z AUTO 14006KT 7SM RA BKN007 OVC013 12/11 A2981 RMK AO2 P0003 T01230113
KDCY 242215Z AUTO 13008KT 10SM -RA SCT009 BKN012 OVC110 12/11 A2980 RMK AO2 T01230113
KDCY 242155Z AUTO 14010KT 10SM RA OVC009 13/12 A2983 RMK AO2 T01250115
KDCY 242135Z AUTO 14010KT 10SM OVC009 13/12 A2985 RMK AO2 LTG DSNT E AND W T01250115
KDCY 242115Z AUTO 12009KT 10SM BKN009 OVC018 13/12 A2986 RMK AO2 LTG DSNT E AND SE T01250115
KDCY 242055Z AUTO 14007KT 10SM VCTS SCT009 OVC018 13/12 A2987 RMK AO2 LTG DSNT SE AND SW T01250115
KDCY 242035Z AUTO 13008KT 3SM -DZ BKN018 BKN024 OVC032 13/12 A2987 RMK AO2 LTG DSNT SE AND S T01250115
KDCY 242015Z AUTO 15011KT 10SM SCT011 OVC024 13/12 A2989 RMK AO2 T01260115
KDCY 241955Z AUTO 14012KT 10SM SCT011 OVC029 13/12 A2988 RMK AO2 LTG DSNT S T01270115
KDCY 241935Z AUTO 14012KT 10SM SCT011 BKN031 OVC037 13/11 A2988 RMK AO2 T01260113
KDCY 241915Z AUTO 12010KT 10SM SCT011 OVC038 13/11 A2989 RMK AO2 T01280114
KDCY 241855Z AUTO 13013KT 10SM SCT010 BKN043 OVC060 13/12 A2990 RMK AO2 T01290115
KDCY 241835Z AUTO 13012KT 10SM SCT010 BKN041 OVC047 12/11 A2990 RMK AO2 T01240113
KDCY 241815Z AUTO 13010KT 10SM SCT008 BKN041 OVC048 12/11 A2993 RMK AO2 T01220112
KDCY 241755Z AUTO 13010KT 10SM SCT007 BKN049 OVC055 12/11 A2994 RMK AO2 60027 T01160106 10116 20073
KDCY 241735Z AUTO 12009KT 10SM BKN007 BKN030 OVC065 11/10 A2995 RMK AO2 T01100100
KDCY 241715Z AUTO 13013KT 10SM OVC007 11/10 A2997 RMK AO2 T01070097
KDCY 241655Z AUTO 13011KT 10SM OVC007 10/09 A2999 RMK AO2 T01030093
KDCY 241635Z AUTO 13009KT 10SM BKN007 BKN021 OVC045 10/09 A3001 RMK AO2 T01000090
KDCY 241615Z AUTO 12009KT 10SM RA BKN007 BKN021 OVC039 10/09 A3002 RMK AO2 T00950085
KDCY 241555Z AUTO 11008KT 10SM -DZ OVC007 09/08 A3003 RMK AO2 T00920083
KDCY 241535Z AUTO 11009KT 10SM BKN007 BKN030 OVC075 09/08 A3004 RMK AO2 T00900080
KDCY 241515Z AUTO 12008KT 10SM RA BKN007 BKN030 OVC075 09/08 A3005 RMK AO2 T00870077
KDCY 241455Z AUTO 11008KT 10SM -RA BKN007 BKN012 OVC055 08/08 A3007 RMK AO2 P0005 60027 T00840075
KDCY 241435Z AUTO 10008KT 10SM -RA OVC007 08/07 A3007 RMK AO2 P0004 T00820073
KDCY 241415Z AUTO 09010KT 7SM -RA BKN007 BKN017 OVC085 08/07 A3006 RMK AO2 P0004 T00810071
KDCY 241355Z AUTO 08009KT 4SM -RA SCT007 BKN015 OVC085 08/07 A3008 RMK AO2 P0017 T00790070
KDCY 241335Z AUTO 12008KT 4SM RA SCT007 BKN060 OVC070 08/07 A3010 RMK AO2 P0010 T00770068
KDCY 241315Z AUTO 10011KT 3SM RA OVC055 08/07 A3007 RMK AO2 P0004 T00750066
KDCY 241255Z AUTO 10008KT 4SM RA SCT006 BKN050 OVC070 08/07 A3009 RMK AO2 P0005 T00750065
KDCY 241235Z AUTO 06007KT 4SM RA SCT004 BKN011 OVC049 07/07 A3009 RMK AO2 P0004 T00730065
KDCY 241215Z AUTO 02007KT 3SM +RA BKN004 OVC009 08/07 A3012 RMK AO2 P0003 T00750065
KDCY 241155Z AUTO 01006KT 4SM RA OVC007 08/07 A3012 RMK AO2 P0010 60012 70013 T00750065 10080 20073
KDCY 241135Z AUTO 36006KT 5SM +RA OVC007 08/07 A3013 RMK AO2 P0005 T00750066
KDCY 241115Z AUTO 01003KT 4SM RA OVC007 08/07 A3011 RMK AO2 P0003 T00770068
KDCY 241055Z AUTO 00000KT 5SM DZ SCT007 BKN045 OVC060 08/07 A3012 RMK AO2 P0002 T00780069
KDCY 241035Z AUTO 04005KT 5SM DZ SCT007 BKN047 OVC070 08/07 A3010 RMK AO2 P0001 T00790070
KDCY 241015Z AUTO 06003KT 7SM -RA SCT007 SCT060 OVC070 08/07 A3011 RMK AO2 T00800070
KDCY 240955Z AUTO 08004KT 7SM SCT007 BKN050 OVC080 08/07 A3010 RMK AO2 T00780069
KDCY 240935Z AUTO 02004KT 7SM DZ SCT007 SCT018 OVC070 08/07 A3011 RMK AO2 T00770068
KDCY 240915Z AUTO 08004KT 7SM RA BKN070 OVC080 08/07 A3012 RMK AO2 T00760066
KDCY 240855Z AUTO 05005KT 7SM -RA SCT007 BKN070 OVC090 08/07 A3014 RMK AO2 T00750066
KDCY 240835Z AUTO 04008KT 7SM BKN007 BKN070 OVC090 07/07 A3014 RMK AO2 T00740065
KDCY 240815Z AUTO 03006KT 7SM OVC007 07/07 A3016 RMK AO2 T00730065
KDCY 240755Z AUTO 36009KT 7SM -RA OVC007 08/07 A3017 RMK AO2 T00750065
KDCY 240735Z AUTO 36008KT 7SM BKN007 OVC016 08/07 A3020 RMK AO2 T00750066
KDCY 240715Z AUTO 35007KT 7SM SCT007 OVC014 08/07 A3020 RMK AO2 T00760067
KDCY 240655Z AUTO 35006KT 7SM OVC012 08/07 A3020 RMK AO2 LTG DSNT SW T00770068
KDCY 240635Z AUTO 36006KT 7SM OVC010 08/07 A3020 RMK AO2 T00770068
KDCY 240615Z AUTO 01009KT 10SM OVC010 08/07 A3020 RMK AO2 T00800070
KDCY 240555Z AUTO 35008KT 10SM OVC015 08/07 A3020 RMK AO2 T00800071 10100 20080 401480077
KDCY 240535Z AUTO 02005KT 10SM OVC015 08/07 A3020 RMK AO2 T00810072
KDCY 240515Z AUTO 03005KT 10SM SCT008 BKN015 BKN110 08/07 A3020 RMK AO2 T00830073
KDCY 240455Z AUTO 02010KT 10SM SCT008 09/08 A3019 RMK AO2 T00850075
KDCY 240435Z AUTO 03005KT 10SM SCT010 09/08 A3019 RMK AO2 T00870078
KDCY 240415Z AUTO 01006KT 10SM CLR 09/08 A3019 RMK AO2 T00900080
KDCY 240355Z AUTO 35005KT 10SM SCT015 09/08 A3020 RMK AO2 T00890080
KDCY 240335Z AUTO 35003KT 10SM BKN015 09/08 A3020 RMK AO2 T00900080